createdAt,value
2018-02-08T00:02:07.488Z,48.55
2018-02-08T00:04:35.887Z,41.55
2018-02-08T00:07:04.263Z,53.47
2018-02-08T00:09:32.684Z,43.42
2018-02-08T00:12:00.300Z,45.88
2018-02-08T00:14:28.712Z,43.13
2018-02-08T00:16:56.326Z,48.40
2018-02-08T00:19:24.116Z,40.28
2018-02-08T00:21:52.498Z,47.50
2018-02-08T00:24:20.115Z,32.05
2018-02-08T00:26:47.814Z,40.20
2018-02-08T00:29:16.191Z,44.83
2018-02-08T00:31:44.591Z,40.72
2018-02-08T00:34:12.234Z,49.35
2018-02-08T00:36:40.630Z,40.33
2018-02-08T00:39:08.248Z,40.70
2018-02-08T00:41:35.882Z,44.03
2018-02-08T00:44:03.602Z,37.95
2018-02-08T00:46:32.091Z,46.25
2018-02-08T00:49:00.487Z,39.67
2018-02-08T00:51:28.128Z,39.10
2018-02-08T00:53:56.507Z,50.53
2018-02-08T00:56:24.906Z,41.05
2018-02-08T00:58:52.561Z,40.25
2018-02-08T01:01:20.966Z,41.75
2018-02-08T01:03:48.578Z,50.60
2018-02-08T01:06:16.244Z,37.75
2018-02-08T01:08:43.884Z,39.83
2018-02-08T01:11:12.286Z,43.95
2018-02-08T01:13:39.962Z,40.05
2018-02-08T01:16:08.451Z,33.00
2018-02-08T01:18:36.863Z,47.35
2018-02-08T01:21:04.491Z,41.80
2018-02-08T01:23:32.970Z,31.85
2018-02-08T01:26:01.347Z,40.17
2018-02-08T01:28:29.830Z,32.70
2018-02-08T01:30:58.211Z,30.92
2018-02-08T01:33:26.615Z,34.75
2018-02-08T01:35:54.231Z,37.97
2018-02-08T01:38:23.455Z,36.42
2018-02-08T01:40:51.835Z,50.60
2018-02-08T01:43:20.231Z,36.45
2018-02-08T01:45:47.878Z,30.35
2018-02-08T01:48:16.358Z,38.40
2018-02-08T01:50:44.848Z,34.33
2018-02-08T01:53:13.259Z,29.65
2018-02-08T01:55:40.867Z,32.85
2018-02-08T01:58:09.267Z,30.23
2018-02-08T02:00:37.643Z,31.90
2018-02-08T02:03:06.077Z,32.17
2018-02-08T02:05:33.793Z,35.20
2018-02-08T02:08:02.188Z,31.30
2018-02-08T02:10:29.930Z,30.00
2018-02-08T02:12:58.377Z,42.88
2018-02-08T02:15:26.015Z,38.08
2018-02-08T02:17:53.635Z,29.05
2018-02-08T02:20:22.127Z,34.63
2018-02-08T02:22:50.524Z,36.97
2018-02-08T02:25:18.272Z,27.85
2018-02-08T02:27:46.656Z,34.55
2018-02-08T02:30:14.300Z,40.53
2018-02-08T02:32:42.796Z,31.70
2018-02-08T02:35:11.198Z,31.70
2018-02-08T02:37:38.820Z,37.70
2018-02-08T02:40:06.603Z,33.33
2018-02-08T02:42:35.024Z,38.17
2018-02-08T02:45:02.651Z,32.05
2018-02-08T02:47:31.132Z,34.08
2018-02-08T02:49:59.606Z,37.17
2018-02-08T02:52:28.021Z,35.60
2018-02-08T02:54:55.641Z,37.15
2018-02-08T02:57:24.049Z,37.40
2018-02-08T02:59:51.663Z,32.97
2018-02-08T03:02:19.305Z,42.10
2018-02-08T03:04:47.023Z,32.15
2018-02-08T03:07:15.504Z,32.63
2018-02-08T03:09:44.616Z,40.90
2018-02-08T03:12:12.260Z,37.80
2018-02-08T03:14:40.783Z,37.65
2018-02-08T03:17:08.419Z,41.70
2018-02-08T03:19:36.043Z,48.42
2018-02-08T03:22:03.742Z,36.45
2018-02-08T03:24:31.459Z,42.17
2018-02-08T03:26:59.098Z,38.83
2018-02-08T03:29:26.715Z,42.03
2018-02-08T03:31:55.123Z,36.40
2018-02-08T03:34:22.743Z,41.37
2018-02-08T03:36:50.423Z,42.50
2018-02-08T03:39:18.812Z,43.15
2018-02-08T03:41:47.292Z,41.42
2018-02-08T03:44:15.776Z,38.92
2018-02-08T03:46:44.163Z,40.58
2018-02-08T03:49:11.819Z,65.28
2018-02-08T03:51:40.319Z,47.45
2018-02-08T03:54:07.968Z,49.90
2018-02-08T03:56:35.628Z,43.70
2018-02-08T03:59:04.035Z,36.55
2018-02-08T04:01:31.656Z,42.53
2018-02-08T04:04:00.056Z,49.08
2018-02-08T04:06:27.675Z,44.60
2018-02-08T04:08:55.321Z,41.53
2018-02-08T04:11:22.948Z,41.20
2018-02-08T04:13:50.600Z,47.15
2018-02-08T04:16:19.080Z,42.90
2018-02-08T04:18:47.503Z,57.20
2018-02-08T04:21:15.114Z,38.28
2018-02-08T04:23:43.511Z,39.45
2018-02-08T04:26:11.169Z,49.55
2018-02-08T04:28:39.575Z,34.85
2018-02-08T04:31:07.207Z,36.65
2018-02-08T04:33:35.596Z,44.05
2018-02-08T04:36:03.349Z,39.42
2018-02-08T04:38:43.816Z,53.92
2018-02-08T04:41:24.280Z,34.17
2018-02-08T04:44:04.612Z,41.28
2018-02-08T04:46:44.284Z,38.60
2018-02-08T04:49:12.721Z,52.42
2018-02-08T04:51:40.432Z,42.35
2018-02-08T04:54:08.912Z,37.85
2018-02-08T04:56:37.332Z,35.80
2018-02-08T04:59:04.964Z,44.42
2018-02-08T05:01:32.608Z,42.35
2018-02-08T05:04:01.099Z,39.78
2018-02-08T05:06:29.512Z,39.53
2018-02-08T05:08:57.302Z,34.63
2018-02-08T05:11:25.012Z,36.40
2018-02-08T05:13:53.396Z,38.50
2018-02-08T05:16:21.046Z,50.43
2018-02-08T05:18:49.432Z,37.92
2018-02-08T05:21:17.910Z,37.70
2018-02-08T05:23:46.291Z,38.60
2018-02-08T05:26:14.696Z,38.35
2018-02-08T05:28:42.317Z,36.15
2018-02-08T05:31:09.995Z,36.25
2018-02-08T05:33:38.479Z,35.40
2018-02-08T05:36:06.899Z,31.15
2018-02-08T05:38:34.506Z,34.53
2018-02-08T05:41:02.143Z,34.83
2018-02-08T05:43:29.768Z,33.58
2018-02-08T05:45:57.416Z,49.10
2018-02-08T05:48:25.041Z,43.58
2018-02-08T05:50:53.459Z,40.47
2018-02-08T05:53:21.079Z,43.30
2018-02-08T05:55:48.770Z,32.67
2018-02-08T05:58:17.180Z,38.22
2018-02-08T06:00:44.808Z,37.13
2018-02-08T06:03:13.223Z,46.53
2018-02-08T06:05:40.844Z,26.67
2018-02-08T06:08:08.587Z,42.05
2018-02-08T06:10:36.292Z,39.15
2018-02-08T06:13:04.731Z,46.67
2018-02-08T06:15:32.431Z,33.33
2018-02-08T06:18:00.836Z,39.33
2018-02-08T06:20:28.462Z,43.97
2018-02-08T06:22:56.112Z,45.12
2018-02-08T06:25:25.246Z,48.22
2018-02-08T06:27:52.900Z,41.55
2018-02-08T06:30:21.283Z,38.90
2018-02-08T06:32:49.762Z,42.60
2018-02-08T06:35:18.248Z,51.45
2018-02-08T06:37:46.685Z,40.20
2018-02-08T06:40:14.308Z,42.53
2018-02-08T06:42:42.115Z,52.33
2018-02-08T06:45:09.820Z,48.85
2018-02-08T06:47:38.303Z,37.13
2018-02-08T06:50:06.692Z,43.13
2018-02-08T06:52:34.357Z,40.78
2018-02-08T06:55:02.830Z,38.05
2018-02-08T06:57:31.303Z,42.20
2018-02-08T06:59:59.782Z,42.03
2018-02-08T07:02:28.276Z,42.30
2018-02-08T07:04:56.751Z,43.13
2018-02-08T07:07:25.136Z,41.92
2018-02-08T07:09:52.778Z,45.58
2018-02-08T07:12:20.395Z,43.63
2018-02-08T07:14:48.044Z,39.10
2018-02-08T07:17:15.690Z,58.47
2018-02-08T07:19:43.929Z,47.50
2018-02-08T07:22:11.605Z,48.45
2018-02-08T07:24:39.239Z,41.97
2018-02-08T07:27:06.854Z,52.65
2018-02-08T07:29:35.260Z,38.20
2018-02-08T07:32:02.964Z,37.35
2018-02-08T07:34:30.609Z,53.58
2018-02-08T07:36:58.320Z,72.53
2018-02-08T07:39:25.985Z,43.53
2018-02-08T07:41:53.639Z,54.85
2018-02-08T07:44:22.029Z,43.70
2018-02-08T07:46:49.683Z,52.03
2018-02-08T07:49:18.070Z,55.92
2018-02-08T07:51:46.479Z,51.75
2018-02-08T07:54:14.212Z,63.65
2018-02-08T07:56:42.696Z,52.30
2018-02-08T07:59:11.075Z,64.68
2018-02-08T08:01:39.551Z,66.30
2018-02-08T08:04:08.031Z,74.62
2018-02-08T08:06:36.439Z,69.87
2018-02-08T08:09:04.064Z,70.43
2018-02-08T08:11:31.746Z,55.92
2018-02-08T08:14:00.141Z,57.42
2018-02-08T08:16:27.872Z,46.70
2018-02-08T08:18:55.555Z,60.17
2018-02-08T08:21:23.966Z,61.35
2018-02-08T08:23:51.670Z,49.28
2018-02-08T08:26:19.316Z,44.50
2018-02-08T08:28:46.931Z,46.40
2018-02-08T08:31:14.572Z,53.40
2018-02-08T08:33:42.955Z,50.12
2018-02-08T08:36:11.369Z,57.88
2018-02-08T08:38:39.108Z,55.45
2018-02-08T08:41:07.493Z,62.50
2018-02-08T08:43:35.136Z,60.15
2018-02-08T08:46:03.514Z,53.63
2018-02-08T08:48:31.196Z,44.65
2018-02-08T08:50:58.815Z,43.58
2018-02-08T08:53:26.510Z,36.92
2018-02-08T08:55:55.003Z,38.88
2018-02-08T08:58:23.474Z,51.42
2018-02-08T09:00:51.863Z,44.33
2018-02-08T09:03:20.356Z,51.00
2018-02-08T09:05:47.980Z,37.75
2018-02-08T09:08:15.627Z,36.92
2018-02-08T09:10:43.326Z,48.30
2018-02-08T09:13:11.737Z,50.28
2018-02-08T09:15:39.354Z,41.85
2018-02-08T09:18:07.008Z,49.10
2018-02-08T09:20:34.627Z,41.13
2018-02-08T09:23:02.368Z,42.30
2018-02-08T09:25:29.999Z,43.33
2018-02-08T09:27:57.624Z,47.50
2018-02-08T09:30:25.356Z,48.75
2018-02-08T09:32:53.840Z,47.78
2018-02-08T09:35:21.500Z,39.78
2018-02-08T09:37:49.992Z,49.13
2018-02-08T09:40:17.634Z,47.25
2018-02-08T09:42:46.011Z,39.30
2018-02-08T09:45:14.410Z,40.38
2018-02-08T09:47:42.037Z,48.40
2018-02-08T09:50:09.670Z,46.08
2018-02-08T09:52:37.435Z,42.60
2018-02-08T09:55:05.083Z,39.88
2018-02-08T09:57:32.719Z,45.35
2018-02-08T10:00:01.132Z,35.10
2018-02-08T10:02:28.865Z,35.13
2018-02-08T10:04:56.507Z,45.15
2018-02-08T10:07:24.123Z,44.80
2018-02-08T10:09:51.809Z,37.50
2018-02-08T10:12:19.404Z,36.25
2018-02-08T10:14:47.807Z,37.83
2018-02-08T10:17:15.424Z,49.95
2018-02-08T10:19:43.178Z,43.60
2018-02-08T10:22:10.879Z,33.13
2018-02-08T10:24:39.264Z,37.22
2018-02-08T10:27:07.680Z,43.67
2018-02-08T10:29:35.451Z,33.42
2018-02-08T10:32:03.072Z,34.95
2018-02-08T10:34:31.557Z,45.40
2018-02-08T10:36:59.967Z,36.53
2018-02-08T10:39:27.700Z,43.72
2018-02-08T10:41:56.107Z,41.03
2018-02-08T10:44:23.728Z,34.25
2018-02-08T10:46:52.141Z,34.75
2018-02-08T10:49:19.795Z,32.60
2018-02-08T10:51:47.547Z,35.58
2018-02-08T10:54:16.027Z,43.17
2018-02-08T10:56:44.472Z,38.53
2018-02-08T10:59:12.180Z,36.90
2018-02-08T11:01:39.835Z,38.75
2018-02-08T11:04:08.324Z,41.40
2018-02-08T11:06:35.989Z,38.15
2018-02-08T11:09:03.603Z,35.63
2018-02-08T11:11:31.313Z,37.35
2018-02-08T11:13:58.964Z,43.75
2018-02-08T11:16:27.456Z,49.53
2018-02-08T11:18:55.940Z,35.33
2018-02-08T11:21:23.595Z,36.50
2018-02-08T11:23:52.005Z,45.08
2018-02-08T11:26:19.634Z,34.85
2018-02-08T11:28:48.063Z,41.05
2018-02-08T11:31:15.675Z,39.00
2018-02-08T11:33:44.172Z,36.08
2018-02-08T11:36:11.832Z,48.75
2018-02-08T11:38:40.308Z,39.00
2018-02-08T11:41:08.791Z,34.25
2018-02-08T11:43:37.194Z,33.55
2018-02-08T11:46:04.803Z,36.97
2018-02-08T11:48:32.416Z,34.60
2018-02-08T11:51:00.780Z,33.33
2018-02-08T11:53:29.264Z,37.83
2018-02-08T11:55:57.740Z,36.67
2018-02-08T11:58:26.228Z,36.75
2018-02-08T12:00:54.615Z,30.20
2018-02-08T12:03:23.004Z,29.73
2018-02-08T12:05:51.367Z,32.20
2018-02-08T12:08:20.568Z,27.57
2018-02-08T12:10:48.951Z,27.90
2018-02-08T12:13:16.604Z,33.10
2018-02-08T12:15:45.009Z,32.22
2018-02-08T12:18:13.363Z,33.00
2018-02-08T12:20:41.035Z,28.13
2018-02-08T12:23:09.511Z,35.30
2018-02-08T12:25:37.176Z,27.40
2018-02-08T12:28:04.772Z,33.57
2018-02-08T12:30:32.504Z,32.53
2018-02-08T12:33:00.096Z,29.07
2018-02-08T12:35:27.720Z,30.97
2018-02-08T12:37:55.315Z,33.20
2018-02-08T12:40:23.053Z,40.12
2018-02-08T12:42:50.647Z,34.33
2018-02-08T12:45:18.255Z,33.07
2018-02-08T12:47:45.935Z,24.77
2018-02-08T12:50:13.630Z,36.80
2018-02-08T12:52:42.077Z,28.97
2018-02-08T12:55:09.848Z,30.17
2018-02-08T12:57:37.435Z,27.87
2018-02-08T13:00:05.073Z,26.20
2018-02-08T13:02:32.739Z,35.10
2018-02-08T13:05:00.410Z,30.70
2018-02-08T13:07:28.792Z,28.07
2018-02-08T13:09:57.260Z,29.47
2018-02-08T13:12:24.879Z,30.37
2018-02-08T13:14:52.463Z,23.23
2018-02-08T13:17:20.071Z,33.40
2018-02-08T13:19:48.415Z,28.93
2018-02-08T13:22:16.023Z,26.57
2018-02-08T13:24:43.652Z,25.50
2018-02-08T13:27:11.268Z,31.20
2018-02-08T13:29:38.859Z,22.23
2018-02-08T13:32:06.487Z,28.43
2018-02-08T13:34:34.074Z,25.20
2018-02-08T13:37:01.693Z,20.00
2018-02-08T13:39:43.072Z,30.93
2018-02-08T13:42:20.592Z,34.13
2018-02-08T13:44:48.333Z,26.37
2018-02-08T13:47:21.559Z,31.50
2018-02-08T13:49:59.052Z,26.77
2018-02-08T13:52:26.664Z,32.20
2018-02-08T13:54:57.991Z,26.87
2018-02-08T14:00:34.293Z,26.63
2018-02-08T14:03:02.672Z,22.97
2018-02-08T14:05:30.280Z,28.93
2018-02-08T14:07:57.888Z,23.73
2018-02-08T14:10:25.479Z,29.70
2018-02-08T14:12:53.112Z,24.57
2018-02-08T14:15:20.704Z,27.47
2018-02-08T14:17:48.320Z,28.50
2018-02-08T14:20:15.909Z,25.20
2018-02-08T14:22:44.366Z,27.13
2018-02-08T14:25:12.030Z,29.83
2018-02-08T14:27:39.699Z,22.97
2018-02-08T14:30:07.354Z,40.13
2018-02-08T14:32:35.028Z,28.30
2018-02-08T14:35:02.686Z,29.13
2018-02-08T14:37:30.279Z,25.23
2018-02-08T14:39:58.727Z,24.60
2018-02-08T14:42:26.320Z,29.90
2018-02-08T14:44:54.732Z,30.67
2018-02-08T14:47:22.440Z,33.08
2018-02-08T14:49:50.059Z,29.17
2018-02-08T14:52:17.652Z,27.23
2018-02-08T14:54:45.261Z,28.20
2018-02-08T14:57:12.989Z,27.23
2018-02-08T14:59:40.652Z,27.42
2018-02-08T15:02:08.307Z,26.90
2018-02-08T15:04:36.713Z,26.35
2018-02-08T15:07:04.340Z,25.15
2018-02-08T15:09:32.743Z,32.75
2018-02-08T15:12:00.335Z,30.40
2018-02-08T15:14:28.055Z,36.70
2018-02-08T15:16:56.440Z,34.47
2018-02-08T15:19:24.064Z,29.67
2018-02-08T15:21:51.704Z,26.98
2018-02-08T15:24:19.437Z,41.40
2018-02-08T15:26:47.190Z,37.17
2018-02-08T15:29:15.675Z,36.42
2018-02-08T15:31:44.160Z,38.20
2018-02-08T15:34:12.551Z,30.62
2018-02-08T15:36:40.196Z,39.05
2018-02-08T15:39:08.647Z,37.47
2018-02-08T15:41:36.283Z,38.40
2018-02-08T15:44:03.895Z,46.17
2018-02-08T15:46:32.294Z,40.15
2018-02-08T15:48:59.904Z,37.33
2018-02-08T15:51:27.539Z,37.67
2018-02-08T15:53:55.235Z,45.25
2018-02-08T15:56:22.870Z,37.00
2018-02-08T15:58:50.495Z,35.53
2018-02-08T16:01:18.899Z,37.47
2018-02-08T16:03:46.515Z,34.00
2018-02-08T16:06:14.200Z,43.33
2018-02-08T16:08:42.603Z,32.95
2018-02-08T16:11:10.226Z,38.28
2018-02-08T16:13:38.716Z,42.08
2018-02-08T16:16:07.207Z,48.30
2018-02-08T16:18:35.603Z,39.15
2018-02-08T16:21:03.226Z,43.42
2018-02-08T16:23:30.888Z,56.78
2018-02-08T16:25:58.507Z,39.90
2018-02-08T16:28:26.178Z,45.10
2018-02-08T16:30:53.792Z,43.33
2018-02-08T16:33:22.196Z,45.60
2018-02-08T16:35:49.820Z,35.00
2018-02-08T16:38:17.502Z,41.47
2018-02-08T16:40:45.994Z,40.47
2018-02-08T16:43:13.651Z,48.05
2018-02-08T16:45:42.037Z,37.30
2018-02-08T16:48:10.510Z,45.03
2018-02-08T16:50:38.887Z,40.67
2018-02-08T16:53:07.283Z,46.72
2018-02-08T16:55:34.958Z,49.78
2018-02-08T16:58:03.322Z,55.78
2018-02-08T17:00:31.815Z,62.08
2018-02-08T17:02:59.452Z,47.42
2018-02-08T17:05:27.939Z,50.97
2018-02-08T17:07:56.359Z,56.90
2018-02-08T17:10:23.966Z,57.80
2018-02-08T17:12:52.226Z,67.95
2018-02-08T17:15:19.899Z,56.37
2018-02-08T17:17:47.593Z,57.58
2018-02-08T17:20:16.076Z,52.03
2018-02-08T17:22:44.555Z,69.85
2018-02-08T17:25:12.967Z,46.75
2018-02-08T17:27:40.595Z,47.72
2018-02-08T17:30:08.995Z,58.58
2018-02-08T17:32:36.643Z,46.28
2018-02-08T17:35:05.119Z,47.15
2018-02-08T17:37:33.500Z,45.38
2018-02-08T17:40:01.896Z,54.05
2018-02-08T17:42:29.515Z,48.85
2018-02-08T17:44:57.203Z,48.67
2018-02-08T17:47:25.587Z,63.50
2018-02-08T17:49:53.987Z,56.63
2018-02-08T17:52:21.632Z,52.88
2018-02-08T17:54:50.107Z,52.22
2018-02-08T17:57:18.590Z,69.35
2018-02-08T17:59:46.991Z,60.90
2018-02-08T18:02:14.636Z,52.80
2018-02-08T18:04:42.408Z,52.90
2018-02-08T18:07:10.068Z,64.65
2018-02-08T18:09:37.723Z,44.88
2018-02-08T18:12:06.126Z,50.58
2018-02-08T18:14:33.767Z,51.92
2018-02-08T18:17:02.163Z,50.72
2018-02-08T18:19:29.774Z,50.70
2018-02-08T18:21:57.408Z,46.92
2018-02-08T18:24:25.019Z,48.22
2018-02-08T18:26:53.418Z,39.97
2018-02-08T18:29:21.901Z,55.53
2018-02-08T18:31:50.317Z,58.78
2018-02-08T18:34:17.931Z,55.92
2018-02-08T18:36:46.335Z,55.97
2018-02-08T18:39:13.991Z,43.53
2018-02-08T18:41:41.632Z,48.87
2018-02-08T18:44:10.024Z,54.65
2018-02-08T18:46:38.508Z,56.90
2018-02-08T18:49:06.992Z,62.17
2018-02-08T18:51:35.400Z,73.00
2018-02-08T18:54:03.019Z,74.37
2018-02-08T18:56:31.514Z,68.45
2018-02-08T18:58:59.995Z,64.55
2018-02-08T19:01:28.475Z,59.97
2018-02-08T19:03:56.897Z,57.30
2018-02-08T19:06:24.531Z,54.42
2018-02-08T19:08:52.180Z,57.62
2018-02-08T19:11:20.658Z,65.03
2018-02-08T19:13:49.063Z,57.75
2018-02-08T19:16:16.711Z,60.15
2018-02-08T19:18:45.188Z,63.65
2018-02-08T19:21:13.671Z,71.43
2018-02-08T19:23:42.091Z,56.67
2018-02-08T19:26:09.718Z,66.15
2018-02-08T19:28:37.354Z,57.78
2018-02-08T19:31:04.975Z,53.20
2018-02-08T19:33:32.615Z,62.97
2018-02-08T19:36:00.235Z,58.30
2018-02-08T19:38:27.928Z,58.10
2018-02-08T19:40:56.327Z,58.47
2018-02-08T19:43:23.971Z,66.78
2018-02-08T19:45:52.365Z,58.33
2018-02-08T19:48:20.013Z,64.45
2018-02-08T19:50:48.496Z,56.83
2018-02-08T19:53:16.984Z,68.20
2018-02-08T19:55:44.603Z,53.10
2018-02-08T19:58:12.305Z,58.85
2018-02-08T20:00:40.783Z,56.78
2018-02-08T20:03:09.166Z,52.83
2018-02-08T20:05:37.577Z,48.20
2018-02-08T20:08:05.303Z,46.80
2018-02-08T20:10:33.707Z,55.40
2018-02-08T20:13:01.320Z,47.47
2018-02-08T20:15:31.820Z,49.50
2018-02-08T20:17:59.427Z,49.00
2018-02-08T20:20:28.306Z,57.38
2018-02-08T20:22:55.923Z,57.65
2018-02-08T20:25:29.258Z,48.58
2018-02-08T20:27:56.892Z,46.97
2018-02-08T20:30:24.531Z,55.28
2018-02-08T20:32:52.180Z,50.22
2018-02-08T20:35:20.631Z,47.67
2018-02-08T20:37:48.324Z,49.38
2018-02-08T20:40:22.788Z,46.78
2018-02-08T20:42:56.083Z,48.90
2018-02-08T20:45:23.726Z,47.90
2018-02-08T20:47:51.359Z,43.83
2018-02-08T20:50:19.783Z,44.65
2018-02-08T20:52:47.408Z,44.92
2018-02-08T20:55:15.828Z,60.47
2018-02-08T20:57:43.615Z,50.83
2018-02-08T21:00:11.275Z,43.38
2018-02-08T21:02:38.900Z,49.70
2018-02-08T21:05:06.539Z,50.63
2018-02-08T21:07:34.950Z,46.40
2018-02-08T21:10:02.589Z,45.95
2018-02-08T21:12:31.062Z,36.50
2018-02-08T21:14:59.443Z,43.95
2018-02-08T21:17:27.854Z,42.38
2018-02-08T21:19:55.480Z,48.33
2018-02-08T21:22:23.879Z,43.70
2018-02-08T21:24:51.526Z,51.17
2018-02-08T21:27:19.935Z,37.63
2018-02-08T21:29:47.577Z,48.53
2018-02-08T21:32:15.214Z,43.42
2018-02-08T21:34:42.958Z,42.38
2018-02-08T21:37:10.600Z,48.92
2018-02-08T21:39:38.220Z,47.47
2018-02-08T21:42:06.628Z,40.97
2018-02-08T21:44:34.267Z,37.08
2018-02-08T21:47:02.666Z,54.95
2018-02-08T21:49:30.290Z,44.75
2018-02-08T21:51:57.967Z,46.97
2018-02-08T21:54:26.456Z,48.83
2018-02-08T21:56:54.958Z,47.20
2018-02-08T21:59:22.704Z,44.28
2018-02-08T22:01:51.086Z,43.70
2018-02-08T22:04:19.558Z,42.13
2018-02-08T22:06:47.939Z,49.03
2018-02-08T22:09:16.418Z,46.03
2018-02-08T22:11:44.801Z,54.65
2018-02-08T22:14:13.203Z,52.45
2018-02-08T22:16:40.849Z,43.60
2018-02-08T22:19:09.259Z,46.83
2018-02-08T22:21:36.890Z,39.92
2018-02-08T22:24:05.366Z,31.73
2018-02-08T22:26:33.760Z,42.60
2018-02-08T22:29:01.408Z,40.80
2018-02-08T22:31:29.901Z,45.45
2018-02-08T22:33:57.572Z,42.75
2018-02-08T22:36:25.216Z,44.38
2018-02-08T22:38:53.599Z,38.42
2018-02-08T22:41:22.079Z,39.65
2018-02-08T22:43:50.458Z,44.20
2018-02-08T22:46:18.948Z,48.65
2018-02-08T22:48:47.426Z,44.67
2018-02-08T22:51:15.827Z,48.67
2018-02-08T22:53:43.439Z,41.53
2018-02-08T22:56:11.156Z,43.60
2018-02-08T22:58:38.791Z,48.08
2018-02-08T23:01:07.197Z,53.60
2018-02-08T23:03:34.815Z,46.53
2018-02-08T23:06:02.453Z,47.53
2018-02-08T23:08:30.164Z,46.47
2018-02-08T23:10:58.575Z,50.88
2018-02-08T23:13:26.257Z,45.03
2018-02-08T23:15:53.967Z,50.10
2018-02-08T23:18:22.342Z,50.22
2018-02-08T23:20:50.751Z,43.28
2018-02-08T23:23:18.391Z,42.62
2018-02-08T23:25:46.798Z,45.10
2018-02-08T23:28:14.435Z,48.70
2018-02-08T23:30:42.836Z,59.20
2018-02-08T23:33:10.479Z,41.28
2018-02-08T23:35:38.872Z,46.37
2018-02-08T23:38:07.303Z,44.15
2018-02-08T23:40:35.691Z,43.35
2018-02-08T23:43:03.333Z,50.25
2018-02-08T23:45:31.047Z,48.87
2018-02-08T23:47:59.528Z,43.10
2018-02-08T23:50:28.660Z,44.05
2018-02-08T23:52:56.387Z,42.92
2018-02-08T23:55:24.766Z,43.55
2018-02-08T23:57:53.171Z,37.47
